Time;durP1;ratioP1;P1;durP2;ratioP2;P2;SDS_P1;SDS_P2;PMS_P1;PMS_P2;Temp;Humidity;BMP_temperature;BMP_pressure;BME280_temperature;BME280_humidity;BME280_pressure;Samples;Min_cycle;Max_cycle;Signal;HPM_P1;HPM_P2
2021/11/05 00:00:00;;;;;;;1.13;1.13;;;;;;;8.59;100.00;100064.66;5056768;28;20604;-56
2021/11/05 00:02:30;;;;;;;0.30;0.20;;;;;;;8.43;100.00;100071.25;5065022;28;20425;-57
2021/11/05 00:04:57;;;;;;;0.30;0.20;;;;;;;8.30;100.00;100080.34;5064991;28;20899;-57
2021/11/05 00:07:24;;;;;;;0.67;0.67;;;;;;;8.16;100.00;100083.28;5063954;28;20470;-56
2021/11/05 00:09:50;;;;;;;0.30;0.20;;;;;;;8.03;100.00;100077.41;5065219;28;20445;-56
2021/11/05 00:12:17;;;;;;;0.30;0.20;;;;;;;8.01;100.00;100081.00;5059004;28;20519;-57
2021/11/05 00:14:44;;;;;;;0.30;0.20;;;;;;;7.99;100.00;100082.81;5058373;28;20454;-56
2021/11/05 00:17:10;;;;;;;0.30;0.20;;;;;;;7.98;100.00;100081.94;5068886;28;21031;-57
2021/11/05 00:19:38;;;;;;;3.43;1.33;;;;;;;7.98;100.00;100076.63;5058890;28;21003;-57
2021/11/05 00:22:06;;;;;;;0.30;0.20;;;;;;;7.93;100.00;100090.84;5063347;28;20421;-56
2021/11/05 00:24:33;;;;;;;0.30;0.20;;;;;;;7.98;100.00;100103.09;5065268;28;20458;-57
2021/11/05 00:27:00;;;;;;;6.00;0.80;;;;;;;7.96;100.00;100102.28;5060801;28;20428;-57
2021/11/05 00:29:27;;;;;;;0.30;0.20;;;;;;;7.98;100.00;100100.47;5058044;28;20446;-56
2021/11/05 00:31:53;;;;;;;0.30;0.20;;;;;;;7.98;100.00;100102.22;5062213;28;21025;-56
2021/11/05 00:34:20;;;;;;;0.30;0.20;;;;;;;7.95;100.00;100110.25;5064873;28;20507;-56
2021/11/05 00:36:48;;;;;;;0.83;0.83;;;;;;;8.12;100.00;100109.88;5061179;28;20450;-56
2021/11/05 00:39:15;;;;;;;0.43;0.40;;;;;;;8.05;100.00;100110.91;5057928;28;20600;-56
2021/11/05 00:41:42;;;;;;;0.30;0.20;;;;;;;8.11;100.00;100109.00;5061501;28;20451;-56
2021/11/05 00:44:09;;;;;;;0.30;0.20;;;;;;;8.03;100.00;100108.28;5065017;28;20450;-56
2021/11/05 00:46:36;;;;;;;0.30;0.20;;;;;;;8.07;100.00;100117.91;5061642;28;20831;-56
2021/11/05 00:49:03;;;;;;;0.30;0.20;;;;;;;8.08;100.00;100124.06;5056708;28;20547;-56
2021/11/05 00:51:30;;;;;;;0.30;0.20;;;;;;;8.22;100.00;100119.34;5059893;28;20450;-57
2021/11/05 00:53:57;;;;;;;0.47;0.47;;;;;;;8.25;100.00;100121.94;5065161;28;20496;-57
2021/11/05 00:56:23;;;;;;;0.30;0.20;;;;;;;8.27;100.00;100128.06;5065562;28;20454;-57
2021/11/05 00:58:50;;;;;;;0.30;0.20;;;;;;;8.28;100.00;100127.16;5061271;28;20494;-56
2021/11/05 01:01:17;;;;;;;0.30;0.20;;;;;;;8.30;100.00;100136.81;5064026;28;20451;-56
2021/11/05 01:03:43;;;;;;;0.30;0.20;;;;;;;8.27;100.00;100136.91;5068300;28;20451;-56
2021/11/05 01:06:14;;;;;;;0.30;0.20;;;;;;;8.31;100.00;100135.03;5065827;28;20500;-56
2021/11/05 01:08:41;;;;;;;0.30;0.20;;;;;;;8.27;100.00;100134.25;5061181;28;20527;-56
2021/11/05 01:11:08;;;;;;;0.30;0.20;;;;;;;8.14;100.00;100148.66;5062578;28;20446;-57
2021/11/05 01:13:35;;;;;;;0.30;0.20;;;;;;;8.19;100.00;100146.75;5067990;28;20878;-57
2021/11/05 01:16:02;;;;;;;2.40;2.30;;;;;;;8.19;100.00;100149.41;5064217;28;20961;-56
2021/11/05 01:18:29;;;;;;;0.30;0.20;;;;;;;8.21;100.00;100150.25;5067330;28;20817;-56
2021/11/05 01:20:55;;;;;;;0.30;0.20;;;;;;;8.09;100.00;100149.66;5067163;28;20442;-57
2021/11/05 01:23:22;;;;;;;0.30;0.20;;;;;;;8.22;100.00;100154.66;5060471;28;20511;-57
2021/11/05 01:25:50;;;;;;;0.30;0.20;;;;;;;8.17;100.00;100153.88;5062107;28;20450;-57
2021/11/05 01:28:17;;;;;;;0.30;0.20;;;;;;;8.06;100.00;100160.28;5067293;28;20475;-56
2021/11/05 01:30:43;;;;;;;0.30;0.20;;;;;;;7.90;100.00;100146.50;5067081;28;20464;-57
2021/11/05 01:33:11;;;;;;;0.30;0.20;;;;;;;7.94;100.00;100154.34;5060488;28;20974;-56
2021/11/05 01:35:40;;;;;;;0.30;0.20;;;;;;;7.93;100.00;100162.31;5061071;28;20455;-57
2021/11/05 01:38:08;;;;;;;0.30;0.20;;;;;;;7.88;100.00;100166.81;5065996;28;20497;-57
2021/11/05 01:40:37;;;;;;;0.30;0.20;;;;;;;7.82;100.00;100167.84;5067379;28;21150;-56
2021/11/05 01:43:04;;;;;;;0.30;0.20;;;;;;;7.72;100.00;100160.97;5061583;28;20449;-56
2021/11/05 01:45:32;;;;;;;0.30;0.20;;;;;;;7.50;100.00;100168.41;5060534;28;20508;-56
2021/11/05 01:47:59;;;;;;;0.30;0.20;;;;;;;7.53;100.00;100170.13;5066150;28;20601;-57
2021/11/05 01:50:27;;;;;;;0.30;0.20;;;;;;;7.52;100.00;100171.91;5066829;28;20481;-56
2021/11/05 01:52:54;;;;;;;0.30;0.20;;;;;;;7.51;100.00;100174.56;5062058;28;20454;-56
2021/11/05 01:55:22;;;;;;;0.30;0.20;;;;;;;7.45;100.00;100177.34;5060127;28;20489;-56
2021/11/05 01:57:48;;;;;;;0.30;0.20;;;;;;;7.32;100.00;100180.19;5065527;28;20466;-56
2021/11/05 02:00:20;;;;;;;0.30;0.20;;;;;;;7.28;100.00;100177.63;5066735;28;20994;-57
2021/11/05 02:02:47;;;;;;;0.30;0.20;;;;;;;7.24;100.00;100184.72;5062725;28;20450;-56
2021/11/05 02:05:16;;;;;;;0.30;0.20;;;;;;;7.21;100.00;100182.13;5059235;28;20501;-57
2021/11/05 02:07:51;;;;;;;0.30;0.20;;;;;;;7.19;100.00;100183.94;5063961;28;20498;-57
2021/11/05 02:10:22;;;;;;;0.30;0.20;;;;;;;7.05;100.00;100188.59;5065579;28;20433;-56
2021/11/05 02:12:50;;;;;;;0.30;0.20;;;;;;;7.03;100.00;100191.25;5066051;28;20454;-57
2021/11/05 02:15:17;;;;;;;0.30;0.20;;;;;;;7.06;100.00;100190.31;5059834;28;20457;-56
2021/11/05 02:17:45;;;;;;;0.30;0.20;;;;;;;7.03;100.00;100200.94;5068963;28;21004;-56
2021/11/05 02:20:16;;;;;;;0.30;0.20;;;;;;;7.07;100.00;100194.72;5066770;28;20905;-57
2021/11/05 02:22:43;;;;;;;0.30;0.20;;;;;;;7.11;100.00;100197.28;5065302;28;20446;-56
2021/11/05 02:25:11;;;;;;;0.30;0.20;;;;;;;7.12;100.00;100204.28;5060492;28;20473;-56
2021/11/05 02:27:38;;;;;;;0.30;0.20;;;;;;;7.08;100.00;100207.91;5059684;28;20478;-56
2021/11/05 02:30:07;;;;;;;0.30;0.20;;;;;;;7.14;100.00;100209.59;5065935;28;20477;-56
2021/11/05 02:32:35;;;;;;;0.30;0.20;;;;;;;6.96;100.00;100204.56;5066736;28;20450;-56
2021/11/05 02:35:04;;;;;;;0.30;0.20;;;;;;;7.00;100.00;100208.94;5058196;28;21009;-56
2021/11/05 02:37:32;;;;;;;0.30;0.20;;;;;;;7.01;100.00;100222.13;5064038;28;20502;-56
2021/11/05 02:39:59;;;;;;;0.30;0.20;;;;;;;7.12;100.00;100214.00;5051185;28;20490;-56
2021/11/05 02:42:26;;;;;;;0.30;0.20;;;;;;;7.10;100.00;100211.38;5066113;28;20495;-56
2021/11/05 02:44:53;;;;;;;0.30;0.20;;;;;;;7.09;100.00;100219.34;5061978;28;20484;-56
2021/11/05 02:47:24;;;;;;;0.30;0.20;;;;;;;7.06;100.00;100216.75;5059061;28;20474;-56
2021/11/05 02:49:53;;;;;;;1.93;1.80;;;;;;;7.05;100.00;100225.59;5062831;28;20443;-56
2021/11/05 02:52:20;;;;;;;0.30;0.20;;;;;;;7.03;100.00;100220.31;5065873;28;20486;-56
2021/11/05 02:54:47;;;;;;;0.30;0.20;;;;;;;7.11;100.00;100226.34;5061745;28;20450;-56
2021/11/05 02:57:14;;;;;;;0.30;0.20;;;;;;;7.13;100.00;100227.22;5058889;28;20815;-56
2021/11/05 02:59:41;;;;;;;0.30;0.20;;;;;;;6.90;100.00;100239.03;5061865;28;20913;-56
2021/11/05 03:02:08;;;;;;;0.30;0.20;;;;;;;6.91;100.00;100235.47;5065724;28;20446;-56
2021/11/05 03:04:36;;;;;;;0.33;0.30;;;;;;;6.96;100.00;100244.19;5063613;28;20442;-57
2021/11/05 03:07:05;;;;;;;0.30;0.20;;;;;;;6.93;100.00;100247.78;5066051;28;20528;-56
2021/11/05 03:09:35;;;;;;;0.30;0.20;;;;;;;6.99;100.00;100244.16;5064019;28;20823;-57
2021/11/05 03:12:03;;;;;;;0.30;0.20;;;;;;;6.93;100.00;100247.78;5058746;28;20481;-57
2021/11/05 03:14:30;;;;;;;0.30;0.20;;;;;;;6.89;100.00;100258.41;5059376;28;20508;-57
2021/11/05 03:16:58;;;;;;;0.30;0.20;;;;;;;6.97;100.00;100269.72;5067493;28;21032;-56
2021/11/05 03:19:25;;;;;;;0.30;0.20;;;;;;;6.82;100.00;100274.34;5059227;28;20490;-56
2021/11/05 03:21:52;;;;;;;0.30;0.20;;;;;;;6.94;100.00;100277.72;5065605;28;20505;-57
2021/11/05 03:24:18;;;;;;;0.30;0.20;;;;;;;6.95;100.00;100284.72;5065368;28;20458;-55
2021/11/05 03:26:46;;;;;;;0.30;0.20;;;;;;;6.99;100.00;100287.34;5059153;28;20927;-57
2021/11/05 03:29:13;;;;;;;0.40;0.40;;;;;;;7.02;100.00;100291.69;5068975;22;20560;-50
2021/11/05 03:31:39;;;;;;;0.30;0.20;;;;;;;7.08;100.00;100296.88;5039398;28;20863;-50
2021/11/05 03:34:06;;;;;;;0.30;0.20;;;;;;;7.08;100.00;100305.69;5038699;28;20447;-50
2021/11/05 03:36:33;;;;;;;0.30;0.20;;;;;;;7.07;100.00;100309.22;5044222;28;20520;-50
2021/11/05 03:38:59;;;;;;;0.30;0.20;;;;;;;6.99;100.00;100307.56;5038653;28;20617;-49
2021/11/05 03:41:26;;;;;;;0.30;0.20;;;;;;;7.07;100.00;100314.50;5044294;28;20934;-50
2021/11/05 03:43:53;;;;;;;0.30;0.20;;;;;;;7.17;100.00;100325.84;5045556;28;20747;-50
2021/11/05 03:46:20;;;;;;;0.30;0.20;;;;;;;7.06;100.00;100322.47;5040177;28;20446;-50
2021/11/05 03:48:46;;;;;;;0.30;0.20;;;;;;;7.04;100.00;100327.78;5038581;28;20472;-50
2021/11/05 03:51:13;;;;;;;0.30;0.20;;;;;;;7.06;100.00;100330.41;5043505;28;20478;-50
2021/11/05 03:53:40;;;;;;;0.30;0.20;;;;;;;7.18;100.00;100332.00;5045569;28;20998;-50
2021/11/05 03:56:07;;;;;;;0.30;0.20;;;;;;;7.14;100.00;100333.81;5040862;28;20506;-50
2021/11/05 03:58:36;;;;;;;0.30;0.20;;;;;;;7.17;100.00;100325.84;5038261;28;20545;-49
2021/11/05 04:01:04;;;;;;;0.30;0.20;;;;;;;7.22;100.00;100341.63;5042853;28;20549;-50
2021/11/05 04:03:30;;;;;;;0.83;0.83;;;;;;;7.25;100.00;100336.28;5045157;28;20954;-50
2021/11/05 04:05:57;;;;;;;0.30;0.20;;;;;;;7.23;100.00;100343.38;5041161;28;20446;-50
2021/11/05 04:08:24;;;;;;;0.30;0.20;;;;;;;7.12;100.00;100338.22;5037956;28;20879;-50
2021/11/05 04:10:52;;;;;;;0.30;0.20;;;;;;;7.02;100.00;100342.78;5042055;28;20444;-50
2021/11/05 04:13:19;;;;;;;0.30;0.20;;;;;;;7.05;100.00;100348.03;5045330;28;20506;-50
2021/11/05 04:15:46;;;;;;;0.30;0.20;;;;;;;6.96;100.00;100358.69;5040917;28;20997;-50
2021/11/05 04:18:12;;;;;;;0.30;0.20;;;;;;;6.86;100.00;100357.09;5045180;28;20499;-50
2021/11/05 04:20:40;;;;;;;0.53;0.50;;;;;;;6.86;100.00;100365.00;5041366;28;20482;-50
2021/11/05 04:23:09;;;;;;;0.30;0.20;;;;;;;6.73;100.00;100374.84;5038238;28;20447;-50
2021/11/05 04:25:36;;;;;;;0.30;0.20;;;;;;;6.61;100.00;100377.63;5041001;28;20877;-49
2021/11/05 04:28:07;;;;;;;0.30;0.20;;;;;;;6.51;100.00;100390.03;5044997;28;20479;-49
2021/11/05 04:30:34;;;;;;;0.30;0.20;;;;;;;6.34;100.00;100392.00;5045905;28;20446;-49
2021/11/05 04:33:01;;;;;;;0.30;0.20;;;;;;;6.35;100.00;100398.16;5041595;28;20446;-50
2021/11/05 04:35:28;;;;;;;0.30;0.20;;;;;;;6.25;100.00;100400.00;5044291;28;20483;-49
2021/11/05 04:37:55;;;;;;;1.80;0.63;;;;;;;6.19;100.00;100402.69;5048493;28;20475;-50
2021/11/05 04:40:22;;;;;;;0.30;0.20;;;;;;;6.11;100.00;100400.09;5046803;28;20536;-49
2021/11/05 04:42:48;;;;;;;0.30;0.20;;;;;;;6.10;100.00;100398.38;5041751;28;20450;-49
2021/11/05 04:45:15;;;;;;;0.67;0.67;;;;;;;6.02;100.00;100404.59;5043335;28;20490;-50
2021/11/05 04:47:42;;;;;;;0.30;0.20;;;;;;;5.86;100.00;100407.31;5048107;28;20860;-49
2021/11/05 04:50:08;;;;;;;0.30;0.20;;;;;;;5.81;100.00;100405.59;5047120;28;20442;-50
2021/11/05 04:52:36;;;;;;;0.30;0.20;;;;;;;5.85;100.00;100408.19;5041718;28;20920;-49
2021/11/05 04:55:04;;;;;;;0.30;0.20;;;;;;;5.71;100.00;100402.16;5042648;28;20448;-49
2021/11/05 04:57:31;;;;;;;0.30;0.20;;;;;;;5.56;100.00;100407.53;5048253;28;20529;-50
2021/11/05 04:59:58;;;;;;;0.30;0.20;;;;;;;5.71;100.00;100409.19;5047271;28;20540;-50
2021/11/05 05:02:25;;;;;;;0.30;0.20;;;;;;;5.42;100.00;100410.25;5041222;28;21001;-50
2021/11/05 05:04:51;;;;;;;0.30;0.20;;;;;;;5.39;100.00;100410.28;5042233;28;20452;-51
2021/11/05 05:07:18;;;;;;;0.30;0.20;;;;;;;5.29;100.00;100432.28;5048261;28;20824;-50
2021/11/05 05:09:44;;;;;;;0.30;0.20;;;;;;;5.60;100.00;100425.06;5046674;28;20454;-50
2021/11/05 05:12:11;;;;;;;0.30;0.20;;;;;;;5.85;100.00;100429.31;5042146;28;20447;-49
2021/11/05 05:14:37;;;;;;;0.30;0.20;;;;;;;5.62;100.00;100434.75;5040831;28;20451;-50
2021/11/05 05:17:08;;;;;;;0.30;0.20;;;;;;;5.74;100.00;100432.91;5050696;28;20935;-50
2021/11/05 05:19:35;;;;;;;0.30;0.20;;;;;;;5.81;100.00;100437.25;5041066;28;20468;-50
2021/11/05 05:22:02;;;;;;;0.30;0.20;;;;;;;5.62;100.00;100442.66;5046062;28;20501;-50
2021/11/05 05:24:29;;;;;;;0.30;0.20;;;;;;;5.71;100.00;100444.34;5047592;28;20451;-50
2021/11/05 05:26:56;;;;;;;0.30;0.20;;;;;;;5.77;100.00;100448.72;5043266;28;20482;-49
2021/11/05 05:29:22;;;;;;;0.30;0.20;;;;;;;5.73;100.00;100453.13;5040412;28;20484;-49
2021/11/05 05:31:49;;;;;;;0.30;0.20;;;;;;;5.65;100.00;100455.81;5045461;28;20509;-51
2021/11/05 05:34:16;;;;;;;0.30;0.20;;;;;;;5.63;100.00;100460.22;5047712;28;20455;-50
2021/11/05 05:36:43;;;;;;;0.30;0.20;;;;;;;5.63;100.00;100468.13;5043355;28;20483;-49
2021/11/05 05:39:10;;;;;;;0.30;0.20;;;;;;;5.64;100.00;100467.25;5040494;28;20482;-48
2021/11/05 05:41:37;;;;;;;0.30;0.20;;;;;;;5.47;100.00;100471.72;5044339;28;20976;-49
2021/11/05 05:44:05;;;;;;;0.30;0.20;;;;;;;5.87;100.00;100482.03;5047315;28;20451;-49
2021/11/05 05:46:31;;;;;;;0.30;0.20;;;;;;;5.70;100.00;100484.78;5043972;28;20454;-49
2021/11/05 05:48:58;;;;;;;0.30;0.20;;;;;;;5.59;100.00;100482.19;5040937;28;20474;-49
2021/11/05 05:51:24;;;;;;;0.30;0.20;;;;;;;5.46;100.00;100488.41;5043672;28;20929;-49
2021/11/05 05:53:51;;;;;;;0.30;0.20;;;;;;;5.48;100.00;100489.31;5047419;28;20499;-49
2021/11/05 05:56:18;;;;;;;0.30;0.20;;;;;;;5.42;100.00;100491.97;5044503;28;20869;-49
2021/11/05 05:58:44;;;;;;;0.30;0.20;;;;;;;5.38;100.00;100499.91;5040480;28;20540;-48
2021/11/05 06:01:11;;;;;;;0.30;0.20;;;;;;;5.39;100.00;100505.16;5043376;28;20913;-51
2021/11/05 06:03:37;;;;;;;0.30;0.20;;;;;;;5.26;100.00;100506.97;5047481;28;20914;-51
2021/11/05 06:06:04;;;;;;;0.30;0.20;;;;;;;5.26;100.00;100516.63;5045892;28;20447;-52
2021/11/05 06:08:31;;;;;;;0.30;0.20;;;;;;;5.36;100.00;100521.00;5040237;28;20516;-51
2021/11/05 06:10:57;;;;;;;0.30;0.20;;;;;;;5.14;100.00;100525.44;5052905;28;20435;-51
2021/11/05 06:13:24;;;;;;;0.30;0.20;;;;;;;4.97;100.00;100522.84;5049550;28;20811;-50
2021/11/05 06:15:51;;;;;;;0.30;0.20;;;;;;;5.03;100.00;100527.22;5043243;28;20447;-50
2021/11/05 06:18:18;;;;;;;0.30;0.20;;;;;;;4.94;100.00;100536.03;5047050;28;20541;-49
2021/11/05 06:20:45;;;;;;;0.30;0.20;;;;;;;5.06;100.00;100540.38;5044356;28;20524;-49
2021/11/05 06:23:11;;;;;;;0.30;0.20;;;;;;;5.02;100.00;100550.06;5039974;28;20454;-50
2021/11/05 06:25:38;;;;;;;0.30;0.20;;;;;;;4.99;100.00;100547.44;5042172;28;20451;-49
2021/11/05 06:28:05;;;;;;;0.30;0.17;;;;;;;5.13;100.00;100549.16;5046564;28;20487;-50
2021/11/05 06:30:31;;;;;;;0.30;0.20;;;;;;;5.01;100.00;100552.69;5044878;28;20485;-49
2021/11/05 06:33:00;;;;;;;0.30;0.20;;;;;;;4.85;100.00;100553.59;5039647;28;20455;-49
2021/11/05 06:35:28;;;;;;;0.30;0.20;;;;;;;4.87;100.00;100555.34;5041481;28;20830;-49
2021/11/05 06:37:56;;;;;;;0.30;0.20;;;;;;;4.83;100.00;100558.88;5046448;28;20530;-49
2021/11/05 06:40:23;;;;;;;0.30;0.20;;;;;;;4.75;100.00;100563.25;5045467;28;20565;-50
2021/11/05 06:42:49;;;;;;;1.43;0.90;;;;;;;4.72;100.00;100566.78;5039820;28;20458;-49
2021/11/05 06:45:16;;;;;;;0.30;0.20;;;;;;;4.81;100.00;100572.94;5040630;28;20451;-49
2021/11/05 06:47:43;;;;;;;0.30;0.20;;;;;;;4.78;100.00;100573.78;5046327;28;20476;-49
2021/11/05 06:50:10;;;;;;;0.30;0.20;;;;;;;4.75;100.00;100581.69;5046023;28;20446;-49
2021/11/05 06:52:37;;;;;;;0.30;0.20;;;;;;;4.81;100.00;100588.72;5038936;28;20455;-49
2021/11/05 06:55:06;;;;;;;0.30;0.20;;;;;;;4.90;100.00;100584.31;5039694;28;20486;-49
2021/11/05 06:57:33;;;;;;;0.30;0.20;;;;;;;4.84;100.00;100583.47;5021967;28;20896;-49
2021/11/05 06:59:59;;;;;;;0.30;0.20;;;;;;;4.88;100.00;100591.34;5039476;28;20451;-50
2021/11/05 07:02:26;;;;;;;1.07;0.97;;;;;;;4.73;100.00;100601.88;5045693;28;20498;-49
2021/11/05 07:04:53;;;;;;;0.30;0.20;;;;;;;4.90;100.00;100605.38;5045275;28;20862;-51
2021/11/05 07:07:20;;;;;;;0.40;0.40;;;;;;;5.00;100.00;100606.25;5045249;28;20941;-50
2021/11/05 07:09:46;;;;;;;0.30;0.20;;;;;;;5.10;100.00;100621.19;5046022;28;20512;-49
2021/11/05 07:12:13;;;;;;;0.30;0.20;;;;;;;5.14;100.00;100624.69;5040589;28;20447;-48
2021/11/05 07:14:40;;;;;;;0.30;0.20;;;;;;;5.19;100.00;100628.19;5039241;28;20459;-49
2021/11/05 07:17:07;;;;;;;1.13;1.13;;;;;;;5.22;100.00;100629.09;5048939;28;20485;-49
2021/11/05 07:19:33;;;;;;;0.30;0.20;;;;;;;4.99;100.00;100638.75;5039227;28;20891;-49
2021/11/05 07:22:02;;;;;;;0.30;0.20;;;;;;;4.97;100.00;100638.75;5044711;28;20564;-49
2021/11/05 07:24:35;;;;;;;0.30;0.20;;;;;;;5.05;100.00;100654.53;5046228;28;20477;-49
2021/11/05 07:27:03;;;;;;;0.30;0.20;;;;;;;5.24;100.00;100651.03;5024176;28;20512;-49
2021/11/05 07:29:31;;;;;;;0.30;0.20;;;;;;;5.47;100.00;100661.53;5038751;28;20544;-49
2021/11/05 07:32:07;;;;;;;0.30;0.20;;;;;;;5.69;100.00;100667.63;5041844;28;20882;-49
2021/11/05 07:34:34;;;;;;;0.30;0.20;;;;;;;5.77;100.00;100668.50;5046035;28;20871;-49
2021/11/05 07:37:13;;;;;;;0.30;0.20;;;;;;;5.92;100.00;100670.25;5043802;28;20458;-49
2021/11/05 07:39:41;;;;;;;0.30;0.20;;;;;;;6.14;100.00;100674.53;5038735;28;20450;-49
2021/11/05 07:42:08;;;;;;;0.40;0.40;;;;;;;6.24;100.00;100685.94;5039390;28;20491;-49
2021/11/05 07:44:36;;;;;;;0.40;0.40;;;;;;;6.44;100.00;100691.09;5045500;28;20447;-50
2021/11/05 07:47:04;;;;;;;0.30;0.20;;;;;;;6.58;100.00;100701.59;5046034;28;20446;-50
2021/11/05 07:49:32;;;;;;;0.30;0.20;;;;;;;6.77;100.00;100706.78;5019439;28;21046;-49
2021/11/05 07:51:58;;;;;;;0.30;0.23;;;;;;;6.92;100.00;100718.13;5045588;28;20451;-49
2021/11/05 07:54:25;;;;;;;2.10;0.87;;;;;;;6.93;100.00;100720.75;5039272;28;21011;-49
2021/11/05 07:56:52;;;;;;;0.30;0.20;;;;;;;7.05;100.00;100725.09;5038710;28;20455;-49
2021/11/05 07:59:19;;;;;;;2.50;1.13;;;;;;;7.28;100.00;100725.78;5044437;28;20502;-50
2021/11/05 08:01:45;;;;;;;0.30;0.20;;;;;;;7.11;100.00;100728.53;5045331;28;20489;-49
2021/11/05 08:04:12;;;;;;;0.30;0.20;;;;;;;7.20;100.00;100739.94;5040741;28;20497;-50
2021/11/05 08:06:39;;;;;;;0.30;0.20;;;;;;;7.50;100.00;100741.47;5053353;28;20477;-50
2021/11/05 08:09:05;;;;;;;0.30;0.20;;;;;;;7.65;100.00;100746.59;5043803;28;20475;-49
2021/11/05 08:11:34;;;;;;;0.30;0.20;;;;;;;7.73;100.00;100747.44;5042437;28;20440;-50
2021/11/05 08:14:02;;;;;;;0.30;0.20;;;;;;;7.81;100.00;100750.88;5046952;28;21006;-49
2021/11/05 08:16:29;;;;;;;0.30;0.20;;;;;;;7.89;100.00;100759.59;5048094;28;20486;-50
2021/11/05 08:18:55;;;;;;;0.30;0.20;;;;;;;7.93;100.00;100768.38;5046654;28;20529;-50
2021/11/05 08:21:22;;;;;;;0.30;0.20;;;;;;;8.02;100.00;100765.66;5049243;28;20532;-50
2021/11/05 08:23:50;;;;;;;0.30;0.20;;;;;;;8.08;100.00;100768.22;5045356;28;20461;-50
2021/11/05 08:26:22;;;;;;;0.30;0.20;;;;;;;8.12;100.00;100775.25;5041937;28;20943;-49
2021/11/05 08:28:48;;;;;;;0.30;0.20;;;;;;;8.26;100.00;100775.13;5045267;28;20479;-49
2021/11/05 08:31:16;;;;;;;0.30;0.20;;;;;;;8.24;100.00;100782.19;5048771;28;20448;-50
2021/11/05 08:33:44;;;;;;;0.30;0.20;;;;;;;8.40;100.00;100790.88;5045886;28;20454;-50
2021/11/05 08:36:13;;;;;;;0.30;0.20;;;;;;;8.62;100.00;100800.31;5041946;28;20512;-49
2021/11/05 08:38:41;;;;;;;0.30;0.20;;;;;;;8.50;100.00;100804.00;5037313;28;20530;-49
2021/11/05 08:41:09;;;;;;;0.30;0.20;;;;;;;8.41;100.00;100806.75;5045911;28;20487;-50
2021/11/05 08:43:35;;;;;;;0.70;0.70;;;;;;;8.56;100.00;100809.22;5043658;28;20505;-50
2021/11/05 08:46:05;;;;;;;0.33;0.30;;;;;;;8.63;100.00;100815.31;5048757;28;20483;-50
2021/11/05 08:48:37;;;;;;;0.30;0.20;;;;;;;8.59;100.00;100813.59;5048134;28;20462;-50
2021/11/05 08:51:09;;;;;;;0.60;0.60;;;;;;;8.66;100.00;100817.94;5041628;28;20450;-49
2021/11/05 08:53:38;;;;;;;0.30;0.20;;;;;;;8.82;100.00;100823.94;5041830;28;20497;-50
2021/11/05 08:56:05;;;;;;;0.30;0.20;;;;;;;9.05;100.00;100826.28;5047227;28;20881;-50
2021/11/05 08:58:33;;;;;;;0.30;0.20;;;;;;;8.84;100.00;100830.06;5048241;28;20474;-50
2021/11/05 09:01:00;;;;;;;0.30;0.20;;;;;;;8.83;100.00;100825.69;5025950;28;20525;-49
2021/11/05 09:03:26;;;;;;;0.30;0.20;;;;;;;8.88;100.00;100840.63;5041545;28;20458;-50
2021/11/05 09:05:53;;;;;;;0.30;0.20;;;;;;;9.14;100.00;100844.69;5053557;28;20447;-50
2021/11/05 09:08:20;;;;;;;0.30;0.20;;;;;;;8.88;100.00;100843.25;5041484;28;20464;-50
2021/11/05 09:10:47;;;;;;;0.30;0.20;;;;;;;8.94;100.00;100844.97;5046090;28;20447;-49
2021/11/05 09:13:14;;;;;;;0.30;0.20;;;;;;;9.24;100.00;100845.44;5048074;28;20947;-50
2021/11/05 09:15:41;;;;;;;0.30;0.30;;;;;;;9.15;100.00;100852.63;5043800;28;20861;-49
2021/11/05 09:18:09;;;;;;;0.30;0.20;;;;;;;9.32;100.00;100860.38;5044038;28;20950;-49
2021/11/05 09:20:38;;;;;;;0.30;0.20;;;;;;;9.31;100.00;100863.91;5044281;28;20454;-49
2021/11/05 09:23:05;;;;;;;0.30;0.20;;;;;;;9.30;100.00;100861.28;5041273;28;20447;-49
2021/11/05 09:25:32;;;;;;;0.30;0.30;;;;;;;9.23;100.00;100859.63;5044493;28;20452;-50
2021/11/05 09:27:59;;;;;;;0.30;0.20;;;;;;;9.45;100.00;100867.22;5048242;28;20519;-50
2021/11/05 09:30:26;;;;;;;0.50;0.50;;;;;;;9.61;100.00;100870.56;5045230;28;20450;-49
2021/11/05 09:32:53;;;;;;;0.30;0.20;;;;;;;9.88;100.00;100882.53;5041526;28;20447;-50
2021/11/05 09:35:21;;;;;;;0.30;0.20;;;;;;;9.84;100.00;100880.78;5043104;28;20475;-50
2021/11/05 09:37:50;;;;;;;1.10;0.83;;;;;;;9.76;100.00;100888.91;5047478;28;20984;-50
2021/11/05 09:40:19;;;;;;;0.60;0.57;;;;;;;9.80;100.00;100890.59;5046311;28;20483;-50
2021/11/05 09:42:48;;;;;;;0.30;0.20;;;;;;;9.82;100.00;100898.53;5040691;28;20521;-50
2021/11/05 09:45:18;;;;;;;0.30;0.20;;;;;;;9.91;100.00;100897.53;5041587;28;20452;-49
2021/11/05 09:47:45;;;;;;;0.30;0.20;;;;;;;9.83;100.00;100899.41;5047884;28;20476;-50
2021/11/05 09:50:15;;;;;;;0.30;0.20;;;;;;;9.83;100.00;100907.38;5047590;28;20474;-50
2021/11/05 09:52:44;;;;;;;0.30;0.20;;;;;;;9.89;100.00;100907.28;5041530;28;20485;-50
2021/11/05 09:55:12;;;;;;;0.30;0.20;;;;;;;10.17;100.00;100910.38;5052724;28;20446;-49
2021/11/05 09:57:39;;;;;;;0.40;0.33;;;;;;;10.20;100.00;100916.50;5042198;28;20880;-49
2021/11/05 10:00:14;;;;;;;1.53;1.07;;;;;;;10.07;100.00;100912.28;5040439;28;20451;-49
2021/11/05 10:02:45;;;;;;;0.40;0.30;;;;;;;10.20;100.00;100915.63;5044270;28;20522;-50
2021/11/05 10:05:12;;;;;;;0.30;0.20;;;;;;;9.94;100.00;100918.72;5049890;28;20497;-50
2021/11/05 10:07:53;;;;;;;0.30;0.20;;;;;;;10.06;100.00;100923.81;5043474;28;20476;-50
2021/11/05 10:10:27;;;;;;;0.30;0.30;;;;;;;10.25;100.00;100925.28;5052470;28;20479;-50
2021/11/05 10:13:05;;;;;;;1.83;1.73;;;;;;;10.08;100.00;100933.53;5036329;28;20442;-50
2021/11/05 10:15:46;;;;;;;1.33;1.23;;;;;;;10.07;100.00;100934.41;5030532;28;20785;-50
2021/11/05 10:18:30;;;;;;;0.30;0.20;;;;;;;10.13;100.00;100933.44;5044250;28;20464;-51
2021/11/05 10:21:14;;;;;;;0.30;0.20;;;;;;;10.17;100.00;100937.81;5028401;28;20443;-50
2021/11/05 10:23:43;;;;;;;0.30;0.20;;;;;;;10.40;100.00;100942.75;5030668;28;20872;-50
2021/11/05 10:26:39;;;;;;;0.30;0.20;;;;;;;10.53;100.00;100941.63;5039570;28;20447;-50
2021/11/05 10:29:08;;;;;;;0.30;0.20;;;;;;;10.35;100.00;100941.97;5023752;28;20484;-50
2021/11/05 10:31:48;;;;;;;0.30;0.30;;;;;;;10.27;100.00;100941.22;5029804;28;20458;-49
2021/11/05 10:34:15;;;;;;;2.10;2.10;;;;;;;10.33;100.00;100933.16;5039623;28;20503;-50
2021/11/05 10:36:50;;;;;;;0.83;0.80;;;;;;;10.45;98.92;100934.72;5044619;28;20508;-50
2021/11/05 10:39:18;;;;;;;0.30;0.20;;;;;;;10.70;98.27;100943.13;5039695;28;20506;-49
2021/11/05 10:41:45;;;;;;;0.30;0.20;;;;;;;10.57;98.37;100938.03;5043642;28;20922;-50
2021/11/05 10:44:13;;;;;;;0.30;0.20;;;;;;;10.71;98.21;100937.78;5046486;28;20452;-49
2021/11/05 10:46:41;;;;;;;0.30;0.20;;;;;;;10.85;96.40;100943.72;5043465;28;20459;-49
2021/11/05 10:49:27;;;;;;;0.30;0.20;;;;;;;10.87;96.02;100943.69;5039269;28;20515;-49
2021/11/05 10:52:16;;;;;;;5.20;2.77;;;;;;;10.91;96.19;100946.25;5040310;28;20443;-50
2021/11/05 10:55:00;;;;;;;0.30;0.20;;;;;;;11.27;95.15;100949.97;5033254;28;20475;-50
2021/11/05 10:57:56;;;;;;;0.30;0.20;;;;;;;11.45;93.41;100950.47;5046099;28;20871;-50
2021/11/05 11:00:25;;;;;;;0.30;0.20;;;;;;;11.40;94.02;100958.56;5029430;28;20528;-50
2021/11/05 11:02:53;;;;;;;0.30;0.20;;;;;;;11.33;94.22;100962.25;5042214;28;20601;-50
2021/11/05 11:05:34;;;;;;;0.43;0.40;;;;;;;11.31;94.09;100958.75;5039377;28;20455;-49
2021/11/05 11:08:02;;;;;;;0.30;0.20;;;;;;;11.59;94.22;100959.03;5041117;28;20513;-50
2021/11/05 11:10:36;;;;;;;0.30;0.20;;;;;;;11.31;93.28;100963.19;5044232;28;20444;-50
2021/11/05 11:13:36;;;;;;;0.30;0.20;;;;;;;11.19;94.20;100962.53;5045690;28;20842;-50
2021/11/05 11:16:06;;;;;;;0.30;0.20;;;;;;;11.07;94.29;100964.56;5042480;28;20422;-50
2021/11/05 11:18:45;;;;;;;2.33;2.13;;;;;;;11.20;96.09;100963.41;5045667;28;20496;-50
2021/11/05 11:21:13;;;;;;;0.30;0.20;;;;;;;11.50;95.40;100962.75;5045722;28;20493;-50
2021/11/05 11:23:40;;;;;;;0.30;0.20;;;;;;;11.46;93.91;100963.75;5040788;28;20447;-49
2021/11/05 11:26:07;;;;;;;0.60;0.60;;;;;;;11.24;94.39;100971.31;5038743;28;20447;-50
2021/11/05 11:28:34;;;;;;;0.30;0.20;;;;;;;11.13;94.32;100967.13;5043836;28;20529;-50